Time;durP1;ratioP1;P1;durP2;ratioP2;P2;SDS_P1;SDS_P2;PMS_P1;PMS_P2;Temp;Humidity;BMP_temperature;BMP_pressure;BME280_temperature;BME280_humidity;BME280_pressure;Samples;Min_cycle;Max_cycle;Signal;HPM_P1;HPM_P2
2021/07/19 00:01:55;;;;;;;6.27;4.40;;;;;;;29.11;48.85;100056.27;128409;1087;64208;-86
2021/07/19 00:04:22;;;;;;;5.33;4.10;;;;;;;29.10;48.74;100060.84;128368;1087;64661;-85
2021/07/19 00:06:51;;;;;;;5.20;4.10;;;;;;;29.11;49.21;100056.27;128361;1087;64365;-85
2021/07/19 00:09:20;;;;;;;4.97;3.97;;;;;;;29.10;49.13;100068.16;128374;1087;64104;-86
2021/07/19 00:11:54;;;;;;;5.20;4.13;;;;;;;29.09;48.99;100063.73;128385;1086;64406;-85
2021/07/19 00:14:21;;;;;;;6.87;4.27;;;;;;;29.10;48.89;100068.16;128379;1086;64134;-86
2021/07/19 00:16:49;;;;;;;5.17;4.30;;;;;;;29.09;49.00;100078.19;128360;1087;64105;-86
2021/07/19 00:19:16;;;;;;;6.13;4.33;;;;;;;29.09;48.89;100080.05;128381;1086;64204;-86
2021/07/19 00:21:42;;;;;;;5.53;4.13;;;;;;;29.09;49.29;100074.61;128354;1087;64088;-84
2021/07/19 00:24:08;;;;;;;6.03;4.13;;;;;;;29.08;49.14;100076.49;128371;1087;64135;-84
2021/07/19 00:26:38;;;;;;;6.58;4.50;;;;;;;29.09;49.15;100077.33;128392;1087;64101;-86
2021/07/19 00:29:05;;;;;;;5.77;4.13;;;;;;;29.08;49.08;100084.64;128341;1087;64118;-86
2021/07/19 00:31:32;;;;;;;5.93;4.20;;;;;;;29.08;49.16;100083.78;128351;1086;64139;-86
2021/07/19 00:34:04;;;;;;;5.77;4.13;;;;;;;29.08;49.11;100087.36;128386;1087;64214;-85
2021/07/19 00:36:31;;;;;;;6.07;4.13;;;;;;;29.08;49.14;100084.64;128389;1084;64134;-85
2021/07/19 00:38:57;;;;;;;5.97;4.37;;;;;;;29.07;49.60;100082.95;128368;1085;64310;-86
2021/07/19 00:41:23;;;;;;;6.80;4.40;;;;;;;29.08;49.32;100083.78;128370;1087;64160;-85
2021/07/19 00:43:59;;;;;;;5.87;4.03;;;;;;;29.07;49.37;100080.23;128389;1085;64276;-85
2021/07/19 00:46:25;;;;;;;6.30;4.20;;;;;;;29.07;49.40;100088.38;128346;1085;64396;-85
2021/07/19 00:48:51;;;;;;;5.10;4.10;;;;;;;29.07;49.61;100084.83;128348;1085;64137;-85
2021/07/19 00:51:21;;;;;;;6.10;4.40;;;;;;;29.08;49.46;100094.65;128019;1087;64183;-86
2021/07/19 00:53:47;;;;;;;6.23;4.13;;;;;;;29.06;49.31;100096.72;128340;1087;64176;-86
2021/07/19 00:56:14;;;;;;;6.17;4.30;;;;;;;29.07;49.25;100101.97;128377;1087;64174;-86
2021/07/19 00:58:46;;;;;;;5.00;4.00;;;;;;;29.08;49.12;100102.80;128395;1086;64134;-86
2021/07/19 01:01:12;;;;;;;5.70;4.43;;;;;;;29.07;49.17;100101.13;128357;1085;64217;-86
2021/07/19 01:03:40;;;;;;;5.10;4.20;;;;;;;29.08;49.41;100100.08;128331;1087;64262;-85
2021/07/19 01:06:09;;;;;;;7.23;4.23;;;;;;;29.06;49.51;100097.55;128388;1087;64099;-85
2021/07/19 01:08:35;;;;;;;5.70;4.37;;;;;;;29.06;49.53;100096.72;128374;1085;64141;-85
2021/07/19 01:11:02;;;;;;;7.70;4.40;;;;;;;29.07;49.29;100109.28;128376;1087;64209;-85
2021/07/19 01:13:28;;;;;;;7.47;4.57;;;;;;;29.07;49.35;100112.00;128350;1087;64153;-85
2021/07/19 01:15:54;;;;;;;6.53;4.33;;;;;;;29.06;49.63;100102.98;128405;1086;64150;-85
2021/07/19 01:18:22;;;;;;;8.13;4.70;;;;;;;29.06;49.50;100104.87;128384;1087;64215;-86
2021/07/19 01:21:30;;;;;;;6.63;4.60;;;;;;;29.05;49.47;100105.89;128363;1087;64097;-85
2021/07/19 01:24:35;;;;;;;6.57;4.50;;;;;;;29.04;49.20;100104.19;128366;1087;64147;-85
2021/07/19 01:27:39;;;;;;;6.00;4.53;;;;;;;29.05;49.28;100114.04;128353;1087;64138;-85
2021/07/19 01:30:06;;;;;;;5.33;4.20;;;;;;;29.05;49.30;100108.61;128351;1087;64137;-85
2021/07/19 01:32:37;;;;;;;4.80;4.30;;;;;;;29.04;49.56;100098.75;128319;1087;64114;-84
2021/07/19 01:35:06;;;;;;;6.17;4.57;;;;;;;29.03;49.49;100099.80;128363;1086;64456;-86
2021/07/19 01:37:35;;;;;;;4.93;4.40;;;;;;;29.05;49.55;100097.73;128405;1087;64115;-85
2021/07/19 01:40:02;;;;;;;5.33;4.43;;;;;;;29.04;49.52;100090.60;128376;1087;64179;-85
2021/07/19 01:42:28;;;;;;;7.20;4.80;;;;;;;29.04;49.41;100083.31;128361;1086;64214;-85
2021/07/19 01:44:54;;;;;;;5.67;4.50;;;;;;;29.04;49.81;100093.31;128366;1087;65349;-85
2021/07/19 01:47:21;;;;;;;7.20;4.60;;;;;;;29.04;49.31;100096.03;128387;1087;64137;-85
2021/07/19 01:49:47;;;;;;;5.30;4.47;;;;;;;29.03;49.73;100106.07;128388;1085;64112;-87
2021/07/19 01:52:14;;;;;;;5.97;4.57;;;;;;;29.04;49.58;100101.47;128389;1087;64127;-84
2021/07/19 01:54:43;;;;;;;7.53;4.53;;;;;;;29.03;49.52;100100.63;128374;1087;64210;-85
2021/07/19 01:57:09;;;;;;;8.37;4.70;;;;;;;29.04;49.51;100104.19;128380;1087;64100;-85
2021/07/19 01:59:45;;;;;;;6.40;4.43;;;;;;;29.04;49.64;100106.91;128360;1087;64221;-86
2021/07/19 02:02:11;;;;;;;7.20;4.70;;;;;;;29.03;49.86;100108.78;128329;1087;64214;-85
2021/07/19 02:04:38;;;;;;;6.20;4.73;;;;;;;29.04;49.58;100109.63;128405;1087;64179;-85
2021/07/19 02:07:07;;;;;;;6.07;4.50;;;;;;;29.03;49.89;100103.35;128380;1087;64124;-86
2021/07/19 02:09:33;;;;;;;6.47;4.80;;;;;;;29.03;49.61;100106.07;128375;1087;65112;-85
2021/07/19 02:12:00;;;;;;;6.37;4.53;;;;;;;29.03;49.79;100100.63;128342;1085;64156;-85
2021/07/19 02:14:26;;;;;;;6.43;4.50;;;;;;;29.03;49.54;100105.23;128359;1085;64304;-86
2021/07/19 02:16:54;;;;;;;6.17;4.90;;;;;;;29.02;49.63;100104.38;128020;1085;64134;-87
2021/07/19 02:19:23;;;;;;;;;;;;;;;29.01;49.68;100096.41;128420;1087;64144;-86
2021/07/19 02:21:49;;;;;;;6.03;4.53;;;;;;;29.01;49.73;100097.23;128372;1085;64131;-86
2021/07/19 02:24:17;;;;;;;5.40;4.43;;;;;;;29.01;49.73;100094.52;128356;1087;64304;-86
2021/07/19 02:26:46;;;;;;;5.77;4.70;;;;;;;29.02;49.78;100098.10;128407;1087;64162;-85
2021/07/19 02:29:15;;;;;;;6.37;4.90;;;;;;;29.00;49.77;100090.14;128382;1087;64141;-85
2021/07/19 02:31:51;;;;;;;6.47;4.70;;;;;;;29.00;49.77;100084.70;128336;1087;64069;-85
2021/07/19 02:34:24;;;;;;;5.97;4.93;;;;;;;29.00;49.75;100076.55;128379;1085;64140;-86
2021/07/19 02:36:55;;;;;;;6.03;4.77;;;;;;;29.00;49.88;100076.55;128365;1086;64157;-85
2021/07/19 02:39:22;;;;;;;6.20;4.50;;;;;;;29.01;49.55;100077.38;128386;1087;64683;-85
2021/07/19 02:41:51;;;;;;;8.07;4.90;;;;;;;29.00;49.59;100087.42;128373;1086;64124;-85
2021/07/19 02:44:19;;;;;;;7.07;4.80;;;;;;;29.00;49.63;100106.44;128392;1087;64128;-85
2021/07/19 02:46:45;;;;;;;6.30;4.97;;;;;;;29.01;49.83;100118.14;128386;1087;63951;-86
2021/07/19 02:49:12;;;;;;;6.67;4.97;;;;;;;29.01;49.72;100121.69;128387;1086;61794;-85
2021/07/19 02:51:41;;;;;;;5.47;4.63;;;;;;;29.01;49.67;100123.58;128357;1087;64598;-86
2021/07/19 02:54:11;;;;;;;5.37;4.73;;;;;;;29.00;49.94;100141.77;128373;1085;64351;-85
2021/07/19 02:56:41;;;;;;;7.13;4.80;;;;;;;29.00;50.09;100128.17;128388;1087;64032;-85
2021/07/19 02:59:07;;;;;;;5.50;4.90;;;;;;;29.01;49.63;100140.71;128389;1087;64000;-85
2021/07/19 03:01:35;;;;;;;6.53;5.10;;;;;;;28.99;49.90;100140.06;128406;1085;64210;-86
2021/07/19 03:04:02;;;;;;;6.17;4.97;;;;;;;29.01;49.78;100145.31;128370;1086;63978;-86
2021/07/19 03:06:37;;;;;;;7.17;4.90;;;;;;;29.00;49.74;100152.63;128385;1086;64205;-86
2021/07/19 03:09:04;;;;;;;6.93;5.03;;;;;;;29.01;49.63;100151.58;128361;1086;62122;-86
2021/07/19 03:11:47;;;;;;;6.35;5.13;;;;;;;29.01;49.98;100156.17;128357;1085;64185;-86
2021/07/19 03:14:16;;;;;;;6.37;4.63;;;;;;;29.01;49.97;100167.88;128024;1087;64147;-85
2021/07/19 03:16:44;;;;;;;8.23;4.85;;;;;;;29.01;49.75;100165.16;128380;1086;64099;-85
2021/07/19 03:19:13;;;;;;;7.15;5.05;;;;;;;29.00;49.88;100166.21;128379;1087;63971;-85
2021/07/19 03:21:42;;;;;;;7.03;5.13;;;;;;;29.00;50.11;100173.50;128337;1087;64163;-85
2021/07/19 03:24:10;;;;;;;7.57;4.90;;;;;;;29.01;49.70;100177.91;128362;1087;65336;-85
2021/07/19 03:26:38;;;;;;;;;;;;;;;29.00;50.15;100179.80;128352;1085;64559;-86
2021/07/19 03:29:05;;;;;;;5.03;4.53;;;;;;;29.00;50.24;100181.65;128433;1087;63956;-85
2021/07/19 03:31:32;;;;;;;7.63;5.20;;;;;;;28.99;50.00;100172.66;128393;1087;63993;-86
2021/07/19 03:33:58;;;;;;;7.90;4.80;;;;;;;29.01;49.87;100177.91;128403;1087;64208;-85
2021/07/19 03:36:26;;;;;;;6.27;4.80;;;;;;;29.01;49.82;100175.20;128480;1085;64187;-85
2021/07/19 03:38:52;;;;;;;7.33;5.23;;;;;;;29.01;49.93;100176.03;128489;1087;64013;-85
2021/07/19 03:41:18;;;;;;;6.37;5.10;;;;;;;29.01;49.79;100178.75;128547;1084;64127;-84
2021/07/19 03:43:45;;;;;;;6.53;5.10;;;;;;;29.03;49.93;100173.17;128517;1086;63395;-85
2021/07/19 03:46:34;;;;;;;6.60;5.03;;;;;;;29.02;49.97;100157.88;128381;1087;64314;-85
2021/07/19 03:49:02;;;;;;;6.37;4.93;;;;;;;29.03;50.03;100145.99;127938;1089;64304;-85
2021/07/19 03:51:29;;;;;;;6.03;4.90;;;;;;;29.03;49.93;100144.11;127937;1087;64466;-84
2021/07/19 03:53:58;;;;;;;6.93;5.20;;;;;;;29.02;50.04;100142.41;127935;1087;64291;-85
2021/07/19 03:56:45;;;;;;;5.43;4.53;;;;;;;29.03;50.24;100149.55;127917;1087;64375;-85
2021/07/19 03:59:13;;;;;;;6.77;5.03;;;;;;;29.03;50.27;100141.39;127908;1087;64138;-85
2021/07/19 04:01:42;;;;;;;6.23;4.87;;;;;;;29.03;49.98;100149.55;127947;1087;64163;-84
2021/07/19 04:04:10;;;;;;;8.43;5.03;;;;;;;29.03;50.26;100141.39;127909;1087;64249;-84
2021/07/19 04:06:37;;;;;;;6.47;5.33;;;;;;;29.04;50.21;100145.81;127916;1087;64137;-85
2021/07/19 04:09:05;;;;;;;5.33;4.83;;;;;;;29.04;50.29;100148.53;127883;1087;64072;-85
2021/07/19 04:11:33;;;;;;;5.10;4.60;;;;;;;29.03;49.88;100141.39;127894;1087;64201;-85
2021/07/19 04:14:10;;;;;;;6.53;4.83;;;;;;;29.04;49.97;100145.81;127906;1087;64291;-84
2021/07/19 04:16:36;;;;;;;6.23;4.83;;;;;;;29.03;49.99;100145.99;127943;1090;63958;-86
2021/07/19 04:19:02;;;;;;;6.60;5.50;;;;;;;29.03;49.83;100137.84;127876;1087;64141;-85
2021/07/19 04:21:32;;;;;;;5.90;5.30;;;;;;;29.03;49.74;100138.67;127895;1087;64313;-86
2021/07/19 04:23:59;;;;;;;7.57;5.43;;;;;;;29.03;50.02;100146.83;127903;1087;64268;-86
2021/07/19 04:26:25;;;;;;;7.70;5.37;;;;;;;29.03;50.17;100149.55;128088;1085;64156;-86
2021/07/19 04:28:53;;;;;;;12.93;5.60;;;;;;;29.03;50.13;100154.98;128392;1087;64096;-85
2021/07/19 04:31:19;;;;;;;7.00;5.57;;;;;;;29.03;50.31;100165.84;128331;1085;64211;-85
2021/07/19 04:33:49;;;;;;;8.67;5.70;;;;;;;29.03;50.04;100171.28;128356;1087;64099;-85
2021/07/19 04:36:17;;;;;;;7.93;6.00;;;;;;;29.02;50.04;100166.86;128388;1086;64131;-86
2021/07/19 04:38:46;;;;;;;;;;;;;;;29.01;49.70;100167.05;128376;1087;64136;-85
2021/07/19 04:41:19;;;;;;;12.07;7.30;;;;;;;28.99;49.80;100161.80;127991;1087;64234;-85
2021/07/19 04:43:48;;;;;;;7.07;5.70;;;;;;;28.99;49.74;100159.08;128357;1086;64154;-86
2021/07/19 04:46:16;;;;;;;6.57;5.87;;;;;;;28.99;49.91;100150.06;128381;1087;64264;-86
2021/07/19 04:48:42;;;;;;;8.50;6.07;;;;;;;28.99;49.90;100155.50;128408;1086;64214;-85
2021/07/19 04:51:08;;;;;;;10.67;6.77;;;;;;;28.98;49.61;100148.39;128347;1085;64136;-85
2021/07/19 04:53:35;;;;;;;20.50;8.43;;;;;;;28.97;50.02;100139.38;128386;1085;64147;-85
2021/07/19 04:56:03;;;;;;;15.25;8.40;;;;;;;28.97;49.72;100133.94;128377;1086;64217;-85
2021/07/19 04:58:30;;;;;;;13.43;7.43;;;;;;;28.96;49.54;100137.67;128005;1085;64110;-86
2021/07/19 05:01:01;;;;;;;12.63;7.20;;;;;;;28.95;49.63;100132.42;128343;1086;64156;-85
2021/07/19 05:03:29;;;;;;;19.23;9.33;;;;;;;28.94;49.45;100126.16;128368;1087;64095;-85
2021/07/19 05:05:58;;;;;;;13.90;7.43;;;;;;;28.93;49.51;100125.33;128388;1087;64236;-85
2021/07/19 05:08:25;;;;;;;15.07;9.97;;;;;;;28.94;49.41;100126.16;128363;1086;64025;-85
2021/07/19 05:10:56;;;;;;;12.03;7.93;;;;;;;28.92;49.52;100126.34;128379;1087;64144;-84
2021/07/19 05:13:22;;;;;;;17.90;8.57;;;;;;;28.91;49.64;100116.49;128029;1086;64186;-85
2021/07/19 05:15:58;;;;;;;15.70;9.35;;;;;;;28.91;49.73;100108.34;128382;1087;64187;-85
2021/07/19 05:18:25;;;;;;;18.05;9.40;;;;;;;28.90;49.57;100124.83;128373;1087;64279;-85
2021/07/19 05:20:54;;;;;;;15.30;9.00;;;;;;;28.88;49.88;100135.88;128363;1087;64240;-85
2021/07/19 05:23:25;;;;;;;15.73;9.83;;;;;;;28.88;49.30;100140.44;128338;1087;64140;-86
2021/07/19 05:25:53;;;;;;;15.20;9.60;;;;;;;28.88;49.84;100148.59;128395;1087;64360;-85
2021/07/19 05:28:19;;;;;;;14.70;9.30;;;;;;;28.87;49.38;100142.32;128003;1087;64211;-85
2021/07/19 05:30:52;;;;;;;13.10;8.80;;;;;;;28.87;49.55;100141.48;128347;1087;64131;-85
2021/07/19 05:33:22;;;;;;;14.47;9.27;;;;;;;28.86;49.74;100143.34;128362;1085;64323;-84
2021/07/19 05:35:49;;;;;;;13.83;8.97;;;;;;;28.86;49.44;100147.94;128375;1087;64430;-84
2021/07/19 05:38:16;;;;;;;12.13;9.73;;;;;;;28.87;49.44;100160.50;128372;1087;64128;-85
2021/07/19 05:40:42;;;;;;;11.67;9.07;;;;;;;28.86;49.18;100172.38;128312;1086;64266;-85
2021/07/19 05:43:09;;;;;;;15.20;10.33;;;;;;;28.85;49.52;100168.80;128334;1087;64142;-85
2021/07/19 05:45:39;;;;;;;11.03;8.47;;;;;;;28.86;49.51;100172.38;128366;1087;64864;-85
2021/07/19 05:48:06;;;;;;;11.00;8.30;;;;;;;28.86;49.64;100186.80;128356;1087;64089;-85
2021/07/19 05:50:32;;;;;;;11.07;8.80;;;;;;;28.86;49.39;100178.66;128385;1085;64107;-85
2021/07/19 05:52:59;;;;;;;11.33;8.43;;;;;;;28.88;49.45;100182.05;128354;1086;64134;-85
2021/07/19 05:55:25;;;;;;;12.50;8.80;;;;;;;28.88;49.35;100181.19;128353;1087;64131;-85
2021/07/19 05:57:54;;;;;;;13.57;9.50;;;;;;;28.89;49.25;100196.47;128341;1087;64173;-85
2021/07/19 06:00:21;;;;;;;10.40;8.97;;;;;;;28.89;49.65;100196.47;128356;1087;64214;-84
2021/07/19 06:02:47;;;;;;;10.47;8.57;;;;;;;28.88;49.49;100197.48;128355;1087;64288;-84
2021/07/19 06:05:14;;;;;;;12.77;8.73;;;;;;;28.90;49.50;100200.89;128345;1086;64121;-85
2021/07/19 06:07:45;;;;;;;11.70;8.73;;;;;;;28.89;49.69;100200.02;128342;1087;64211;-85
2021/07/19 06:10:12;;;;;;;13.33;8.77;;;;;;;28.90;49.43;100192.73;128294;1087;64140;-85
2021/07/19 06:12:39;;;;;;;13.90;9.07;;;;;;;28.91;49.49;100189.01;128335;1087;64111;-85
2021/07/19 06:15:07;;;;;;;18.13;9.43;;;;;;;28.90;49.38;100179.99;128392;1087;64305;-84
2021/07/19 06:17:54;;;;;;;16.07;9.23;;;;;;;28.91;49.49;100175.42;128361;1087;64593;-85
2021/07/19 06:20:28;;;;;;;12.53;9.77;;;;;;;28.92;49.29;100179.81;128326;1085;64291;-85
2021/07/19 06:23:02;;;;;;;10.90;8.90;;;;;;;28.90;49.33;100179.99;128329;1087;64205;-85
2021/07/19 06:25:31;;;;;;;11.83;8.90;;;;;;;28.91;49.31;100181.69;128388;1087;64216;-85
2021/07/19 06:27:58;;;;;;;10.87;9.13;;;;;;;28.91;49.42;100178.14;128368;1087;64288;-84
2021/07/19 06:30:25;;;;;;;12.13;9.90;;;;;;;28.91;49.53;100178.98;128379;1087;64092;-85
2021/07/19 06:32:51;;;;;;;11.70;9.03;;;;;;;28.92;49.77;100175.24;128319;1087;64227;-85
2021/07/19 06:35:17;;;;;;;12.93;9.10;;;;;;;28.92;49.49;100175.24;128288;1087;64188;-84
2021/07/19 06:37:44;;;;;;;10.03;8.77;;;;;;;28.93;49.89;100178.80;128290;1085;64172;-85
2021/07/19 06:40:12;;;;;;;12.77;8.40;;;;;;;28.93;49.42;100176.95;128298;1086;64215;-86
2021/07/19 06:42:39;;;;;;;10.67;9.00;;;;;;;28.92;49.31;100177.96;128335;1087;64307;-85
2021/07/19 06:45:06;;;;;;;10.07;8.60;;;;;;;28.93;49.57;100182.38;128355;1086;64226;-87
2021/07/19 06:47:35;;;;;;;13.33;9.00;;;;;;;28.94;49.24;100185.92;128347;1086;64157;-84
2021/07/19 06:50:02;;;;;;;12.70;9.60;;;;;;;28.92;49.22;100186.11;128343;1086;64118;-84
2021/07/19 06:52:34;;;;;;;10.93;8.90;;;;;;;28.93;49.70;100190.53;128357;1087;64135;-85
2021/07/19 06:55:00;;;;;;;11.27;8.77;;;;;;;28.92;49.37;100164.38;128333;1087;64102;-85
2021/07/19 06:57:27;;;;;;;11.43;8.93;;;;;;;28.92;49.54;100152.64;128333;1086;64214;-84
2021/07/19 06:59:55;;;;;;;10.90;9.63;;;;;;;28.92;49.48;100161.66;128256;1087;64323;-84
2021/07/19 07:02:21;;;;;;;12.93;9.30;;;;;;;28.93;49.32;100176.08;128329;1087;64279;-85
2021/07/19 07:04:47;;;;;;;11.60;9.30;;;;;;;28.92;49.21;100186.11;128399;1087;64297;-85
2021/07/19 07:07:13;;;;;;;14.97;9.37;;;;;;;28.92;49.47;100188.83;128321;1087;64282;-85
2021/07/19 07:09:40;;;;;;;15.33;9.33;;;;;;;28.92;49.15;100187.95;127997;1087;64128;-85
2021/07/19 07:12:06;;;;;;;15.57;9.80;;;;;;;28.92;49.26;100185.24;128338;1087;64159;-85
2021/07/19 07:14:33;;;;;;;12.90;9.47;;;;;;;28.93;49.16;100186.94;128353;1086;64352;-85
2021/07/19 07:16:59;;;;;;;13.43;9.40;;;;;;;28.92;49.37;100180.67;128319;1087;64262;-85
2021/07/19 07:19:26;;;;;;;15.23;9.97;;;;;;;28.93;49.08;100185.09;128323;1087;64168;-85
2021/07/19 07:21:53;;;;;;;16.23;9.80;;;;;;;28.93;49.15;100184.23;128359;1087;64208;-84
2021/07/19 07:24:20;;;;;;;15.67;9.43;;;;;;;28.95;49.01;100186.77;128404;1087;64180;-84
2021/07/19 07:26:46;;;;;;;14.83;9.80;;;;;;;28.95;48.96;100184.91;128336;1085;64135;-85
2021/07/19 07:29:12;;;;;;;11.47;9.10;;;;;;;28.97;49.50;100192.88;128474;1086;64105;-85
2021/07/19 07:31:39;;;;;;;12.90;9.30;;;;;;;28.98;49.29;100197.30;128385;1087;64208;-85
2021/07/19 07:34:05;;;;;;;14.83;9.37;;;;;;;29.00;49.24;100197.95;128529;1087;64193;-85
2021/07/19 07:36:34;;;;;;;12.67;9.10;;;;;;;29.01;49.17;100202.37;128509;1086;64947;-85
2021/07/19 07:39:03;;;;;;;14.20;9.50;;;;;;;29.01;49.08;100205.92;128563;1087;62818;-85
2021/07/19 07:41:30;;;;;;;12.45;9.40;;;;;;;29.03;48.91;100206.61;128128;1087;64125;-82
2021/07/19 07:43:57;;;;;;;11.33;8.87;;;;;;;29.04;49.02;100202.88;128416;1087;64101;-84
2021/07/19 07:46:24;;;;;;;15.27;9.90;;;;;;;29.06;49.35;100200.80;128375;1085;64183;-85
2021/07/19 07:48:52;;;;;;;12.00;9.40;;;;;;;29.07;48.74;100196.23;128379;1086;64212;-85
2021/07/19 07:51:19;;;;;;;13.33;9.50;;;;;;;29.08;48.76;100200.63;128353;1085;64258;-85
2021/07/19 07:53:46;;;;;;;13.60;9.77;;;;;;;29.08;48.93;100204.21;128040;1087;64137;-85
2021/07/19 07:56:12;;;;;;;13.17;9.67;;;;;;;29.09;48.84;100196.89;128325;1087;64323;-85
2021/07/19 07:58:39;;;;;;;10.17;8.67;;;;;;;29.10;49.05;100195.88;128245;1087;64128;-85
2021/07/19 08:01:12;;;;;;;;;;;;;;;29.10;48.83;100199.42;128409;1087;64165;-85
2021/07/19 08:03:39;;;;;;;13.67;9.03;;;;;;;29.11;48.75;100200.29;128393;1085;64114;-85
2021/07/19 08:06:05;;;;;;;11.73;9.80;;;;;;;29.12;48.74;100190.26;128351;1084;64154;-85
2021/07/19 08:08:32;;;;;;;11.83;10.17;;;;;;;29.12;48.65;100182.11;128351;1085;64179;-85
2021/07/19 08:10:59;;;;;;;12.93;10.03;;;;;;;29.14;48.88;100189.05;128344;1087;64137;-85
2021/07/19 08:13:26;;;;;;;13.73;9.97;;;;;;;29.14;48.68;100178.19;128370;1087;64089;-85
2021/07/19 08:15:53;;;;;;;11.40;10.17;;;;;;;29.15;48.51;100174.45;128341;1087;64144;-85
2021/07/19 08:18:20;;;;;;;13.80;10.40;;;;;;;29.17;48.65;100182.42;128316;1087;64138;-84
2021/07/19 08:20:48;;;;;;;13.15;10.10;;;;;;;29.17;48.82;100166.95;128390;1086;64310;-85
2021/07/19 08:23:15;;;;;;;14.60;10.30;;;;;;;29.17;48.55;100172.38;128377;1086;64051;-85
2021/07/19 08:25:41;;;;;;;14.00;10.00;;;;;;;29.17;48.41;100169.67;128300;1087;64152;-85
2021/07/19 08:28:08;;;;;;;11.50;9.80;;;;;;;29.18;48.36;100171.37;128352;1085;63949;-84
2021/07/19 08:30:34;;;;;;;14.03;9.53;;;;;;;29.19;48.48;100172.20;128348;1086;64716;-84
2021/07/19 08:33:04;;;;;;;12.57;10.10;;;;;;;29.18;48.57;100168.65;128374;1086;64307;-84
2021/07/19 08:35:31;;;;;;;12.47;10.03;;;;;;;29.19;48.33;100164.05;128326;1085;64134;-85
2021/07/19 08:37:58;;;;;;;11.60;10.30;;;;;;;29.19;48.55;100167.63;128360;1087;64127;-85
2021/07/19 08:40:26;;;;;;;15.00;9.83;;;;;;;29.21;48.56;100175.60;128324;1087;64209;-85
2021/07/19 08:43:03;;;;;;;14.40;9.63;;;;;;;29.21;48.60;100172.88;128403;1087;64134;-85
2021/07/19 08:45:31;;;;;;;13.40;10.15;;;;;;;29.20;48.31;100172.05;128398;1085;64166;-85
2021/07/19 08:47:59;;;;;;;11.33;9.43;;;;;;;29.21;48.46;100179.16;128286;1086;64282;-84
2021/07/19 08:50:25;;;;;;;12.13;9.97;;;;;;;29.21;48.73;100170.16;128383;1086;64185;-84
2021/07/19 08:52:53;;;;;;;14.83;10.30;;;;;;;29.21;48.69;100179.16;128328;1085;64102;-84
2021/07/19 08:55:22;;;;;;;12.17;9.80;;;;;;;29.20;48.24;100180.20;128365;1085;64140;-85
2021/07/19 08:57:49;;;;;;;15.00;9.40;;;;;;;29.18;48.61;100174.09;128347;1087;64757;-84
2021/07/19 09:00:19;;;;;;;10.00;8.80;;;;;;;29.20;48.25;100179.34;128359;1085;64134;-83
2021/07/19 09:02:45;;;;;;;19.10;10.33;;;;;;;29.20;48.61;100173.90;128396;1087;64096;-84
2021/07/19 09:05:15;;;;;;;14.67;9.10;;;;;;;29.20;48.24;100173.90;128339;1085;64138;-84
2021/07/19 09:07:44;;;;;;;12.20;9.47;;;;;;;29.21;48.60;100173.72;128256;1087;64189;-85
2021/07/19 09:10:11;;;;;;;13.17;9.17;;;;;;;29.21;48.34;100172.88;128203;1086;64211;-82
2021/07/19 09:12:48;;;;;;;11.23;9.27;;;;;;;29.21;48.17;100168.28;128214;1087;64182;-82
2021/07/19 09:15:14;;;;;;;16.43;9.83;;;;;;;29.22;48.32;100163.71;129490;1085;61913;-83
2021/07/19 09:17:41;;;;;;;12.43;9.63;;;;;;;29.22;48.63;100161.83;129487;1087;61796;-83
2021/07/19 09:20:09;;;;;;;13.83;9.77;;;;;;;29.24;48.06;100159.79;129491;1087;61967;-83
2021/07/19 09:22:37;;;;;;;10.70;9.13;;;;;;;29.27;48.28;100166.78;128290;1086;64245;-82
2021/07/19 09:25:13;;;;;;;13.00;9.63;;;;;;;29.28;48.37;100167.61;128311;1085;63942;-83
2021/07/19 09:27:52;;;;;;;14.17;9.03;;;;;;;29.30;48.05;100168.30;128279;1086;64230;-83
2021/07/19 09:30:21;;;;;;;14.30;10.10;;;;;;;29.30;47.84;100160.14;128346;1087;64140;-85
2021/07/19 09:32:58;;;;;;;11.23;9.20;;;;;;;29.30;48.21;100162.86;128448;1087;64250;-86
2021/07/19 09:35:27;;;;;;;10.77;9.53;;;;;;;29.30;48.04;100165.57;128334;1086;64162;-85
2021/07/19 09:37:54;;;;;;;12.47;8.93;;;;;;;29.30;48.11;100152.81;128312;1087;64220;-85
2021/07/19 09:40:26;;;;;;;16.80;9.57;;;;;;;29.30;47.92;100144.66;128351;1087;64307;-85
2021/07/19 09:42:54;;;;;;;10.03;8.93;;;;;;;29.30;48.07;100157.42;128369;1086;64220;-84
2021/07/19 09:45:26;;;;;;;17.50;10.60;;;;;;;29.30;47.51;100149.27;128361;1087;64140;-85
2021/07/19 09:48:05;;;;;;;10.20;9.17;;;;;;;29.30;47.39;100149.27;128385;1087;64166;-85
2021/07/19 09:50:39;;;;;;;11.10;9.90;;;;;;;29.29;47.26;100151.11;128365;1087;64227;-84
2021/07/19 09:53:08;;;;;;;12.83;9.40;;;;;;;29.29;47.36;100148.39;128367;1087;64099;-85
2021/07/19 09:55:34;;;;;;;12.67;9.00;;;;;;;29.28;47.14;100152.13;128376;1087;62048;-84
2021/07/19 09:58:01;;;;;;;12.57;9.00;;;;;;;29.28;47.11;100146.70;128357;1085;64259;-85
2021/07/19 10:00:30;;;;;;;11.63;9.27;;;;;;;29.28;47.11;100146.70;128367;1087;64135;-85
2021/07/19 10:02:57;;;;;;;11.30;9.40;;;;;;;29.28;46.84;100146.70;128383;1087;64156;-85
2021/07/19 10:05:27;;;;;;;13.03;9.60;;;;;;;29.28;47.17;100143.98;128369;1086;64143;-85
2021/07/19 10:07:53;;;;;;;10.07;9.07;;;;;;;29.29;47.04;100142.13;128351;1087;64144;-85
2021/07/19 10:10:34;;;;;;;13.40;9.63;;;;;;;29.27;46.86;100142.31;128229;1086;64159;-85
2021/07/19 10:13:02;;;;;;;12.23;9.00;;;;;;;29.28;46.96;100137.70;128375;1087;64138;-84
2021/07/19 10:15:29;;;;;;;12.93;8.57;;;;;;;29.28;46.91;100135.83;128334;1087;64132;-84
2021/07/19 10:17:56;;;;;;;10.93;9.60;;;;;;;29.29;46.81;100139.41;128312;1087;64227;-83
2021/07/19 10:20:23;;;;;;;11.43;8.93;;;;;;;29.28;47.14;100133.11;128263;1085;64239;-84
2021/07/19 10:22:49;;;;;;;13.20;8.47;;;;;;;29.29;47.11;100142.96;128232;1087;61823;-83
2021/07/19 10:25:16;;;;;;;10.63;9.10;;;;;;;29.29;47.21;100145.68;128180;1086;64138;-83
2021/07/19 10:27:44;;;;;;;15.97;9.23;;;;;;;29.30;46.91;100141.94;128160;1087;64163;-83
2021/07/19 10:30:10;;;;;;;;;;;;;;;29.29;46.99;100142.96;128229;1087;62333;-83
2021/07/19 10:32:37;;;;;;;10.80;8.30;;;;;;;29.30;46.85;100149.27;128187;1087;64220;-83
2021/07/19 10:35:07;;;;;;;9.57;8.57;;;;;;;29.30;46.96;100152.81;128249;1086;64177;-84
2021/07/19 10:37:39;;;;;;;13.47;9.10;;;;;;;29.31;46.65;100151.80;128410;1087;64182;-83
2021/07/19 10:40:10;;;;;;;10.93;8.40;;;;;;;29.31;46.95;100149.08;128327;1087;64608;-84
2021/07/19 10:42:40;;;;;;;10.77;8.07;;;;;;;29.32;47.09;100167.05;128357;1085;64178;-86
2021/07/19 10:45:17;;;;;;;12.03;8.77;;;;;;;29.32;46.98;100152.63;128312;1086;64152;-86
2021/07/19 10:47:53;;;;;;;10.67;8.50;;;;;;;29.33;47.00;100146.17;128318;1087;64204;-86
2021/07/19 10:50:27;;;;;;;9.60;7.93;;;;;;;29.33;46.58;100141.57;128337;1087;63935;-84
2021/07/19 10:52:56;;;;;;;12.17;8.97;;;;;;;29.33;46.60;100140.73;128315;1085;64126;-86
2021/07/19 10:55:33;;;;;;;9.75;8.75;;;;;;;29.33;46.50;100143.45;128409;1087;64243;-86
2021/07/19 10:58:07;;;;;;;10.30;8.77;;;;;;;29.34;46.92;100129.68;128335;1086;64086;-86
2021/07/19 11:00:42;;;;;;;9.57;8.57;;;;;;;29.34;46.98;100123.41;128355;1085;64124;-87
2021/07/19 11:03:10;;;;;;;11.77;8.30;;;;;;;29.35;46.58;100130.52;127875;1086;64225;-84
2021/07/19 11:05:40;;;;;;;9.73;8.20;;;;;;;29.34;46.63;100126.96;128191;1087;64124;-86
2021/07/19 11:08:07;;;;;;;10.60;8.23;;;;;;;29.34;46.75;100118.80;127894;1087;64133;-87
2021/07/19 11:10:45;;;;;;;10.03;8.10;;;;;;;29.35;46.97;100117.78;128221;1087;64131;-86
2021/07/19 11:13:11;;;;;;;10.13;8.13;;;;;;;29.35;46.62;100119.64;128254;1087;64245;-86
2021/07/19 11:15:39;;;;;;;13.73;8.33;;;;;;;29.36;46.82;100126.77;128171;1085;64237;-86
2021/07/19 11:18:15;;;;;;;10.53;8.40;;;;;;;29.37;46.64;100112.16;128319;1085;64285;-86
2021/07/19 11:20:43;;;;;;;9.97;8.07;;;;;;;29.35;46.62;100115.06;128265;1087;64316;-87
2021/07/19 11:23:09;;;;;;;9.97;8.53;;;;;;;29.37;46.43;100109.45;128476;1087;64138;-86